Time;durP1;ratioP1;P1;durP2;ratioP2;P2;SDS_P1;SDS_P2;PMS_P1;PMS_P2;Temp;Humidity;BMP_temperature;BMP_pressure;BME280_temperature;BME280_humidity;BME280_pressure;Samples;Min_cycle;Max_cycle;Signal;HPM_P1;HPM_P2
2021/10/29 00:01:06;;;;;;;30.35;28.42;;;;;;;;;;5067843;28;20040;-51
2021/10/29 00:03:33;;;;;;;29.65;27.85;;;;;;;;;;5071372;28;20048;-50
2021/10/29 00:06:00;;;;;;;27.25;25.85;;;;;;;;;;5072824;28;20120;-51
2021/10/29 00:08:26;;;;;;;27.80;26.33;;;;;;;;;;5072186;28;20044;-51
2021/10/29 00:10:53;;;;;;;29.80;28.27;;;;;;;;;;5069529;28;20095;-52
2021/10/29 00:13:21;;;;;;;26.50;24.80;;;;;;;;;;5070201;28;20420;-51
2021/10/29 00:15:48;;;;;;;28.88;27.33;;;;;;;;;;5071869;28;20056;-53
2021/10/29 00:18:15;;;;;;;26.90;25.50;;;;;;;;;;5070312;28;20044;-52
2021/10/29 00:20:41;;;;;;;27.00;25.70;;;;;;;;;;5069650;28;20036;-52
2021/10/29 00:23:09;;;;;;;26.05;24.85;;;;;;;;;;5068272;28;20040;-52
2021/10/29 00:25:35;;;;;;;27.17;25.80;;;;;;;;;;5070898;28;20052;-52
2021/10/29 00:28:02;;;;;;;29.35;28.10;;;;;;;;;;5068940;28;20379;-51
2021/10/29 00:30:29;;;;;;;27.70;26.35;;;;;;;;;;5064941;28;20097;-52
2021/10/29 00:32:55;;;;;;;26.30;24.40;;;;;;;;;;5071383;28;20058;-51
2021/10/29 00:35:22;;;;;;;28.08;26.67;;;;;;;;;;5071622;28;20123;-50
2021/10/29 00:37:49;;;;;;;28.75;27.00;;;;;;;;;;5070667;28;20081;-53
2021/10/29 00:40:16;;;;;;;29.13;27.73;;;;;;;;;;5069965;28;20072;-47
2021/10/29 00:42:43;;;;;;;25.70;24.40;;;;;;;;;;5072038;28;20039;-50
2021/10/29 00:45:10;;;;;;;24.17;23.08;;;;;;;;;;5072319;28;20055;-51
2021/10/29 00:47:37;;;;;;;26.13;24.83;;;;;;;;;;5071783;28;20094;-51
2021/10/29 00:50:08;;;;;;;28.02;26.80;;;;;;;;;;5070792;28;20033;-52
2021/10/29 00:52:35;;;;;;;28.50;27.20;;;;;;;;;;5070010;28;20087;-52
2021/10/29 00:55:02;;;;;;;28.35;27.05;;;;;;;;;;5065256;28;20044;-52
2021/10/29 00:57:29;;;;;;;27.90;26.58;;;;;;;;;;5061844;28;20036;-50
2021/10/29 00:59:58;;;;;;;28.90;27.33;;;;;;;;;;5071059;28;20075;-52
2021/10/29 01:02:25;;;;;;;27.92;26.73;;;;;;;;;;5070257;28;20465;-51
2021/10/29 01:04:52;;;;;;;27.25;25.83;;;;;;;;;;5065712;28;20110;-52
2021/10/29 01:07:19;;;;;;;29.50;27.95;;;;;;;;;;5072590;28;20036;-52
2021/10/29 01:09:46;;;;;;;27.80;26.30;;;;;;;;;;5069416;28;20728;-53
2021/10/29 01:12:13;;;;;;;28.70;27.25;;;;;;;;;;5069972;28;20037;-52
2021/10/29 01:14:41;;;;;;;30.10;28.35;;;;;;;;;;5070114;28;20036;-52
2021/10/29 01:17:07;;;;;;;25.95;24.67;;;;;;;;;;5070979;28;20044;-52
2021/10/29 01:19:38;;;;;;;29.00;27.05;;;;;;;;;;5069266;28;20028;-53
2021/10/29 01:22:05;;;;;;;29.55;27.95;;;;;;;;;;5071048;28;20688;-52
2021/10/29 01:24:32;;;;;;;29.17;27.73;;;;;;;;;;5072138;28;20094;-52
2021/10/29 01:26:58;;;;;;;27.27;25.67;;;;;;;;;;5069510;28;20113;-52
2021/10/29 01:29:25;;;;;;;28.27;26.85;;;;;;;;;;5071639;28;20072;-53
2021/10/29 01:31:52;;;;;;;28.50;27.00;;;;;;;;;;5070193;28;20048;-53
2021/10/29 01:34:19;;;;;;;26.05;24.65;;;;;;;;;;5070829;28;20040;-52
2021/10/29 01:36:46;;;;;;;31.17;29.42;;;;;;;;;;5070596;28;20086;-52
2021/10/29 01:39:14;;;;;;;28.33;26.90;;;;;;;;;;5068569;28;20097;-51
2021/10/29 01:41:41;;;;;;;27.80;26.02;;;;;;;;;;5071659;28;20049;-53
2021/10/29 01:44:08;;;;;;;30.02;28.38;;;;;;;;;;5069511;28;20048;-52
2021/10/29 01:46:35;;;;;;;28.95;27.73;;;;;;;;;;5063841;28;20116;-52
2021/10/29 01:49:02;;;;;;;99.25;30.35;;;;;;;;;;5069957;28;20037;-53
2021/10/29 01:51:29;;;;;;;50.28;27.88;;;;;;;;;;5069737;28;20078;-52
2021/10/29 01:53:57;;;;;;;28.27;25.92;;;;;;;;;;5069935;28;20162;-52
2021/10/29 01:56:24;;;;;;;26.65;25.25;;;;;;;;;;5070200;28;20036;-52
2021/10/29 01:58:51;;;;;;;29.85;27.20;;;;;;;;;;5057497;28;20039;-53
2021/10/29 02:01:18;;;;;;;31.75;28.85;;;;;;;;;;5071313;28;20246;-51
2021/10/29 02:03:45;;;;;;;29.20;27.60;;;;;;;;;;5068540;28;20043;-50
2021/10/29 02:06:12;;;;;;;27.75;26.40;;;;;;;;;;5070460;28;20048;-52
2021/10/29 02:08:39;;;;;;;29.02;27.25;;;;;;;;;;5068210;28;20041;-53
2021/10/29 02:11:06;;;;;;;27.38;26.23;;;;;;;;;;5071257;28;20037;-52
2021/10/29 02:13:33;;;;;;;27.13;26.13;;;;;;;;;;5068227;28;20362;-53
2021/10/29 02:16:00;;;;;;;28.25;26.75;;;;;;;;;;5069611;28;20044;-52
2021/10/29 02:18:27;;;;;;;27.63;26.33;;;;;;;;;;5065653;28;20029;-53
2021/10/29 02:20:56;;;;;;;27.15;25.90;;;;;;;;;;5067781;28;20036;-52
2021/10/29 02:23:24;;;;;;;26.42;25.33;;;;;;;;;;5070618;28;20112;-52
2021/10/29 02:25:51;;;;;;;26.30;25.10;;;;;;;;;;5068768;28;20029;-53
2021/10/29 02:28:18;;;;;;;26.20;25.20;;;;;;;;;;5069761;28;20056;-51
2021/10/29 02:30:45;;;;;;;26.30;25.15;;;;;;;;;;5063552;28;20095;-53
2021/10/29 02:33:14;;;;;;;27.00;25.58;;;;;;;;;;5070723;28;20612;-52
2021/10/29 02:35:40;;;;;;;25.25;24.38;;;;;;;;;;5069788;28;20043;-52
2021/10/29 02:38:07;;;;;;;25.60;24.50;;;;;;;;;;5068107;28;20036;-51
2021/10/29 02:40:34;;;;;;;24.52;23.73;;;;;;;;;;5066166;28;20041;-52
2021/10/29 02:43:01;;;;;;;27.88;26.60;;;;;;;;;;5066993;28;20033;-52
2021/10/29 02:45:29;;;;;;;27.35;25.80;;;;;;;;;;5068182;28;20135;-48
2021/10/29 02:47:56;;;;;;;26.00;24.88;;;;;;;;;;5057245;28;20045;-51
2021/10/29 02:50:23;;;;;;;27.58;26.23;;;;;;;;;;5067064;28;20055;-50
2021/10/29 02:52:50;;;;;;;28.20;26.83;;;;;;;;;;5070424;28;20076;-50
2021/10/29 02:55:17;;;;;;;27.60;26.30;;;;;;;;;;5062631;28;20409;-49
2021/10/29 02:57:45;;;;;;;26.50;25.05;;;;;;;;;;5056020;28;20045;-52
2021/10/29 03:00:14;;;;;;;26.42;25.45;;;;;;;;;;5068665;28;20036;-50
2021/10/29 03:02:41;;;;;;;26.23;24.95;;;;;;;;;;5068656;28;20123;-50
2021/10/29 03:05:09;;;;;;;27.48;26.20;;;;;;;;;;5067302;28;20497;-52
2021/10/29 03:07:36;;;;;;;25.50;24.45;;;;;;;;;;5068007;28;20041;-51
2021/10/29 03:10:06;;;;;;;25.90;24.88;;;;;;;;;;5068870;28;20033;-51
2021/10/29 03:12:33;;;;;;;27.02;25.83;;;;;;;;;;5069764;28;20107;-52
2021/10/29 03:15:01;;;;;;;25.27;24.15;;;;;;;;;;5069254;28;20140;-52
2021/10/29 03:17:27;;;;;;;29.00;27.70;;;;;;;;;;5069766;28;20044;-50
2021/10/29 03:19:54;;;;;;;29.17;27.80;;;;;;;;;;5065572;28;20044;-50
2021/10/29 03:22:21;;;;;;;26.98;25.88;;;;;;;;;;5065398;28;20082;-51
2021/10/29 03:24:48;;;;;;;26.92;25.75;;;;;;;;;;5069441;28;20469;-50
2021/10/29 03:27:14;;;;;;;28.67;27.33;;;;;;;;;;5069770;28;20048;-51
2021/10/29 03:29:41;;;;;;;28.20;26.60;;;;;;;;;;5071268;28;20040;-51
2021/10/29 03:32:08;;;;;;;29.98;28.45;;;;;;;;;;5068583;28;20082;-48
2021/10/29 03:34:35;;;;;;;26.88;25.58;;;;;;;;;;5067965;28;20131;-51
2021/10/29 03:37:04;;;;;;;27.67;26.20;;;;;;;;;;5067469;28;20045;-52
2021/10/29 03:39:36;;;;;;;28.85;27.40;;;;;;;;;;5061659;28;20043;-52
2021/10/29 03:42:10;;;;;;;28.75;27.17;;;;;;;;;;5072548;28;20132;-51
2021/10/29 03:47:46;;;;;;;29.70;28.40;;;;;;;;;;5080527;28;20134;-51
2021/10/29 03:50:24;;;;;;;28.13;26.92;;;;;;;;;;5086920;28;20058;-50
2021/10/29 03:55:34;;;;;;;28.23;26.92;;;;;;;;;;5092125;28;20056;-51
2021/10/29 03:58:01;;;;;;;29.77;27.88;;;;;;;;;;5089401;28;20036;-52
2021/10/29 04:00:30;;;;;;;29.92;28.02;;;;;;;;;;5088855;28;20043;-50
2021/10/29 04:03:02;;;;;;;29.98;27.42;;;;;;;;;;5090457;28;20071;-49
2021/10/29 04:05:30;;;;;;;31.20;29.27;;;;;;;;;;5089796;28;20059;-51
2021/10/29 04:07:57;;;;;;;98.15;30.20;;;;;;;;;;5086617;28;20052;-51
2021/10/29 04:10:26;;;;;;;92.28;29.77;;;;;;;;;;5089712;28;20067;-49
2021/10/29 04:12:54;;;;;;;33.33;30.10;;;;;;;;;;5090846;28;20437;-51
2021/10/29 04:15:21;;;;;;;52.72;31.13;;;;;;;;;;5089807;28;20040;-51
2021/10/29 04:17:48;;;;;;;33.78;29.38;;;;;;;;;;5089449;28;20400;-51
2021/10/29 04:20:15;;;;;;;29.58;27.52;;;;;;;;;;5088167;28;20067;-50
2021/10/29 04:22:43;;;;;;;31.52;30.05;;;;;;;;;;5073190;28;20063;-49
2021/10/29 04:25:10;;;;;;;31.13;29.63;;;;;;;;;;5071647;28;20053;-50
2021/10/29 04:27:44;;;;;;;28.25;27.13;;;;;;;;;;5069459;28;20032;-50
2021/10/29 04:30:15;;;;;;;29.52;28.20;;;;;;;;;;5066191;28;20051;-48
2021/10/29 04:32:47;;;;;;;30.40;28.55;;;;;;;;;;5072682;28;20396;-50
2021/10/29 04:35:14;;;;;;;28.38;27.05;;;;;;;;;;5070630;28;20051;-51
2021/10/29 04:37:41;;;;;;;30.67;28.85;;;;;;;;;;5071643;28;20086;-49
2021/10/29 04:40:08;;;;;;;30.17;28.85;;;;;;;;;;5068076;28;20116;-51
2021/10/29 04:42:35;;;;;;;27.30;25.83;;;;;;;;;;5072035;28;20037;-51
2021/10/29 04:45:05;;;;;;;27.67;26.33;;;;;;;;;;5064305;28;20452;-51
2021/10/29 04:47:32;;;;;;;31.15;29.13;;;;;;;;;;5067413;28;20048;-49
2021/10/29 04:49:59;;;;;;;32.58;30.58;;;;;;;;;;5071922;28;20048;-50
2021/10/29 04:52:26;;;;;;;30.80;29.17;;;;;;;;;;5071951;28;20060;-50
2021/10/29 04:54:53;;;;;;;29.48;28.08;;;;;;;;;;5069075;28;20036;-52
2021/10/29 04:57:20;;;;;;;32.20;30.67;;;;;;;;;;5072532;28;20481;-50
2021/10/29 04:59:48;;;;;;;33.25;30.77;;;;;;;;;;5070372;28;20086;-51
2021/10/29 05:02:14;;;;;;;45.00;30.50;;;;;;;;;;5072515;28;20111;-50
2021/10/29 05:04:41;;;;;;;28.58;26.67;;;;;;;;;;5070641;28;20369;-50
2021/10/29 05:07:08;;;;;;;32.45;30.15;;;;;;;;;;5070048;28;20354;-49
2021/10/29 05:09:35;;;;;;;35.25;31.75;;;;;;;;;;5072291;28;20095;-48
2021/10/29 05:12:02;;;;;;;38.95;31.80;;;;;;;;;;5068518;28;20417;-51
2021/10/29 05:14:29;;;;;;;35.83;32.20;;;;;;;;;;5071527;28;20044;-49
2021/10/29 05:16:56;;;;;;;32.40;29.42;;;;;;;;;;5068555;28;20040;-48
2021/10/29 05:19:23;;;;;;;30.48;27.48;;;;;;;;;;5062546;28;20036;-48
2021/10/29 05:21:51;;;;;;;30.27;28.70;;;;;;;;;;5071749;28;20036;-50
2021/10/29 05:24:17;;;;;;;27.92;26.60;;;;;;;;;;5066616;28;20040;-42
2021/10/29 05:26:44;;;;;;;32.25;29.42;;;;;;;;;;5065964;28;20036;-43
2021/10/29 05:29:12;;;;;;;33.58;31.38;;;;;;;;;;5070117;28;20105;-44
2021/10/29 05:31:38;;;;;;;34.72;32.47;;;;;;;;;;5066105;28;20064;-43
2021/10/29 05:34:05;;;;;;;31.40;29.42;;;;;;;;;;5065140;28;20469;-45
2021/10/29 05:36:35;;;;;;;33.40;30.88;;;;;;;;;;5058116;28;20090;-44
2021/10/29 05:39:05;;;;;;;37.30;34.58;;;;;;;;;;5069626;28;20046;-44
2021/10/29 05:41:33;;;;;;;33.50;28.77;;;;;;;;;;5069732;28;20049;-43
2021/10/29 05:44:00;;;;;;;39.40;31.25;;;;;;;;;;5067610;28;20532;-43
2021/10/29 05:46:30;;;;;;;104.70;31.38;;;;;;;;;;5071604;28;20369;-45
2021/10/29 05:48:57;;;;;;;28.50;27.20;;;;;;;;;;5070351;28;20033;-43
2021/10/29 05:51:25;;;;;;;24.67;22.88;;;;;;;;;;5070777;28;20090;-44
2021/10/29 05:54:09;;;;;;;26.73;25.58;;;;;;;;;;5069331;28;20557;-42
2021/10/29 05:56:36;;;;;;;26.45;25.42;;;;;;;;;;5053921;28;20049;-44
2021/10/29 05:59:04;;;;;;;25.52;24.65;;;;;;;;;;5070329;28;20036;-43
2021/10/29 06:01:32;;;;;;;27.33;26.15;;;;;;;;;;5069527;28;20492;-43
2021/10/29 06:03:59;;;;;;;24.40;23.30;;;;;;;;;;5071386;28;20079;-44
2021/10/29 06:06:26;;;;;;;25.75;24.92;;;;;;;;;;5069350;28;20071;-44
2021/10/29 06:08:52;;;;;;;31.30;29.40;;;;;;;;;;5071353;28;20049;-43
2021/10/29 06:11:20;;;;;;;37.63;34.55;;;;;;;;;;5069532;28;20040;-44
2021/10/29 06:13:47;;;;;;;57.03;50.88;;;;;;;;;;5070361;28;20032;-44
2021/10/29 06:16:14;;;;;;;40.90;37.25;;;;;;;;;;5069760;28;20090;-44
2021/10/29 06:18:41;;;;;;;62.28;34.13;;;;;;;;;;5066863;28;20102;-44
2021/10/29 06:21:10;;;;;;;51.05;40.88;;;;;;;;;;5071781;28;20044;-43
2021/10/29 06:24:01;;;;;;;55.33;41.85;;;;;;;;;;5067747;28;20044;-44
2021/10/29 06:26:26;;;;;;;77.75;38.85;;;;;;;;;;5069983;28;20033;-44
2021/10/29 06:28:53;;;;;;;131.57;36.50;;;;;;;;;;5070020;28;20503;-44
2021/10/29 06:31:20;;;;;;;89.60;36.47;;;;;;;;;;5069148;28;20118;-44
2021/10/29 06:33:47;;;;;;;116.68;34.45;;;;;;;;;;5069851;28;20139;-43
2021/10/29 06:36:14;;;;;;;124.32;31.60;;;;;;;;;;5068570;28;20037;-44
2021/10/29 06:38:42;;;;;;;81.72;29.92;;;;;;;;;;5069355;28;20024;-45
2021/10/29 06:41:09;;;;;;;60.10;31.25;;;;;;;;;;5067895;28;20048;-44
2021/10/29 06:44:27;;;;;;;26.05;25.13;;;;;;;;;;5068757;28;20369;-48
2021/10/29 06:46:37;;;;;;;26.55;25.45;;;;;;;;;;5059044;28;20052;-45
2021/10/29 07:00:11;;;;;;;23.08;22.48;;;;;;;;;;5068604;28;20036;-45
2021/10/29 07:41:13;;;;;;;27.42;25.70;;;;;;;;;;5064627;28;20049;-48
2021/10/29 07:44:02;;;;;;;25.88;24.70;;;;;;;;;;5069901;28;20071;-45
2021/10/29 07:46:29;;;;;;;23.63;22.17;;;;;;;;;;5068127;28;20040;-45
2021/10/29 07:48:56;;;;;;;22.90;21.90;;;;;;;;;;5070135;28;20048;-44
2021/10/29 07:51:23;;;;;;;23.67;22.90;;;;;;;;;;5068979;28;20094;-45
2021/10/29 07:53:51;;;;;;;25.17;23.75;;;;;;;;;;5064292;28;20040;-44
2021/10/29 07:56:17;;;;;;;24.08;23.05;;;;;;;;;;5062000;28;20052;-44
2021/10/29 07:58:44;;;;;;;23.08;21.98;;;;;;;;;;5061177;28;20072;-44
2021/10/29 08:01:11;;;;;;;32.83;30.20;;;;;;;;;;5070113;28;20127;-45
2021/10/29 08:03:40;;;;;;;27.65;25.90;;;;;;;;;;5066862;28;20510;-44
2021/10/29 08:06:07;;;;;;;29.95;28.17;;;;;;;;;;5066730;28;20048;-45
2021/10/29 08:08:33;;;;;;;43.83;38.13;;;;;;;;;;5066974;28;20425;-44
2021/10/29 08:11:00;;;;;;;53.75;41.88;;;;;;;;;;5059718;28;20496;-46
2021/10/29 08:13:28;;;;;;;31.83;29.05;;;;;;;;;;5069069;28;20238;-45
2021/10/29 08:15:59;;;;;;;36.05;32.83;;;;;;;;;;5069489;28;20120;-45
2021/10/29 08:18:26;;;;;;;28.42;26.80;;;;;;;;;;5067296;28;20029;-44
2021/10/29 08:20:53;;;;;;;28.83;27.30;;;;;;;;;;5069154;28;20417;-45
2021/10/29 08:23:20;;;;;;;30.40;28.52;;;;;;;;;;5069722;28;20025;-44
2021/10/29 08:25:47;;;;;;;27.67;26.20;;;;;;;;;;5071953;28;20039;-47
2021/10/29 08:28:14;;;;;;;31.63;29.58;;;;;;;;;;5071210;28;20079;-45
2021/10/29 08:30:49;;;;;;;28.25;26.98;;;;;;;;;;5071801;28;20068;-45
2021/10/29 08:33:17;;;;;;;28.98;27.17;;;;;;;;;;5073224;28;20037;-44
2021/10/29 08:35:43;;;;;;;29.45;27.95;;;;;;;;;;5064185;28;20443;-45
2021/10/29 08:38:10;;;;;;;29.42;27.70;;;;;;;;;;5070931;28;20040;-45
2021/10/29 08:40:37;;;;;;;28.65;26.70;;;;;;;;;;5071803;28;20366;-45
2021/10/29 08:43:03;;;;;;;28.30;26.55;;;;;;;;;;5073139;28;20079;-44
2021/10/29 08:45:30;;;;;;;25.83;24.63;;;;;;;;;;5070509;28;20040;-45
2021/10/29 08:47:58;;;;;;;29.73;27.50;;;;;;;;;;5066710;28;20477;-44
2021/10/29 08:50:25;;;;;;;25.23;23.92;;;;;;;;;;5066170;28;20501;-44
2021/10/29 08:52:52;;;;;;;22.65;21.85;;;;;;;;;;5064128;28;20066;-44
2021/10/29 08:55:25;;;;;;;20.55;19.58;;;;;;;;;;5071860;28;20405;-45
2021/10/29 08:57:52;;;;;;;;;;;;;;;;;;5069388;28;20047;-45
2021/10/29 09:00:25;;;;;;;17.25;16.25;;;;;;;;;;5071506;28;19927;-45
2021/10/29 09:03:09;;;;;;;16.30;16.00;;;;;;;;;;5069478;28;20045;-46
2021/10/29 09:08:39;;;;;;;12.52;12.23;;;;;;;;;;5072641;28;20040;-44
2021/10/29 09:33:07;;;;;;;7.15;2.55;;;;;;;;;;5072919;28;20056;-45
2021/10/29 09:35:36;;;;;;;2.87;2.77;;;;;;;;;;5068283;28;20032;-44
2021/10/29 09:38:06;;;;;;;2.15;2.05;;;;;;;;;;5069338;28;20044;-44
2021/10/29 09:40:34;;;;;;;5.63;3.08;;;;;;;;;;5071637;28;20048;-46
2021/10/29 09:43:12;;;;;;;5.97;5.47;;;;;;;;;;5069726;28;20500;-43
2021/10/29 09:45:47;;;;;;;4.57;4.18;;;;;;;;;;5070569;28;20546;-44
2021/10/29 09:48:21;;;;;;;5.38;3.97;;;;;;;;;;5069931;28;20032;-45
2021/10/29 09:50:51;;;;;;;5.00;1.70;;;;;;;;;;5068654;28;20143;-44
2021/10/29 09:53:47;;;;;;;3.03;2.65;;;;;;;;;;5065837;28;20461;-46
2021/10/29 09:56:22;;;;;;;5.25;2.15;;;;;;;;;;5065984;28;20083;-45
2021/10/29 09:58:49;;;;;;;1.77;1.60;;;;;;;;;;5065643;28;20112;-44
2021/10/29 10:01:16;;;;;;;4.30;1.90;;;;;;;;;;5068906;28;20048;-47
2021/10/29 10:03:44;;;;;;;2.05;1.98;;;;;;;;;;5069564;28;20496;-44
2021/10/29 10:06:12;;;;;;;2.95;2.40;;;;;;;;;;5068975;28;20040;-46
2021/10/29 10:08:40;;;;;;;2.33;2.22;;;;;;;;;;5066981;28;20070;-44
2021/10/29 10:11:08;;;;;;;3.08;2.88;;;;;;;;;;5065375;28;20051;-46
2021/10/29 10:13:38;;;;;;;2.85;2.65;;;;;;;;;;5066077;28;20036;-46
2021/10/29 10:16:06;;;;;;;2.08;1.90;;;;;;;;;;5067879;28;20040;-44
2021/10/29 10:18:33;;;;;;;6.28;1.65;;;;;;;;;;5068459;28;20040;-44
2021/10/29 10:21:02;;;;;;;1.30;1.20;;;;;;;;;;5066909;28;20037;-45
2021/10/29 10:23:35;;;;;;;1.90;1.38;;;;;;;;;;5063458;28;20036;-44
2021/10/29 10:48:26;;;;;;;1.10;1.00;;;;;;;;;;5068337;28;20045;-45
2021/10/29 10:51:19;;;;;;;1.10;0.90;;;;;;;;;;5067614;28;20090;-45
2021/10/29 10:53:52;;;;;;;0.90;0.90;;;;;;;;;;5056140;28;20032;-45
2021/10/29 10:56:35;;;;;;;;;;;;;;;;;;5068032;28;20037;-45
2021/10/29 11:00:19;;;;;;;0.93;0.90;;;;;;;;;;5067516;28;20023;-46
2021/10/29 11:02:41;;;;;;;1.97;1.20;;;;;;;;;;5054181;28;20059;-44
2021/10/29 11:10:16;;;;;;;1.70;0.80;;;;;;;;;;5067964;28;20056;-48
2021/10/29 11:12:44;;;;;;;1.80;0.90;;;;;;;;;;5069716;28;20055;-44
2021/10/29 11:15:11;;;;;;;2.70;0.90;;;;;;;;;;5069844;28;20056;-46
2021/10/29 11:17:49;;;;;;;1.60;1.00;;;;;;;;;;5062840;28;20436;-45
2021/10/29 11:20:53;;;;;;;1.33;0.80;;;;;;;;;;5063549;28;20110;-46
2021/10/29 11:23:25;;;;;;;2.20;0.90;;;;;;;;;;5074549;28;20051;-45
2021/10/29 11:25:58;;;;;;;0.80;0.80;;;;;;;;;;5087478;28;20064;-46
2021/10/29 11:28:30;;;;;;;1.35;1.10;;;;;;;;;;5083404;28;20105;-46
2021/10/29 11:30:58;;;;;;;1.27;1.00;;;;;;;;;;5080505;28;20056;-45
2021/10/29 11:33:26;;;;;;;3.10;1.00;;;;;;;;;;5088142;28;20579;-47
2021/10/29 11:35:56;;;;;;;1.00;1.00;;;;;;;;;;5079797;28;20048;-40
2021/10/29 11:38:23;;;;;;;1.58;1.02;;;;;;;;;;5077342;28;20138;-39
2021/10/29 11:40:51;;;;;;;1.67;0.90;;;;;;;;;;5086444;28;20641;-39
2021/10/29 11:43:27;;;;;;;1.02;0.98;;;;;;;;;;5079913;28;20464;-40
2021/10/29 11:45:55;;;;;;;2.15;1.00;;;;;;;;;;5086489;28;21172;-39
2021/10/29 11:48:24;;;;;;;1.15;1.10;;;;;;;;;;5083731;28;20145;-39
2021/10/29 11:51:23;;;;;;;1.38;0.80;;;;;;;;;;5087690;28;20056;-39
2021/10/29 11:53:55;;;;;;;0.90;0.90;;;;;;;;;;5004752;28;20079;-39
2021/10/29 12:01:54;;;;;;;0.98;0.80;;;;;;;;;;5008584;28;20046;-39
2021/10/29 12:07:20;;;;;;;1.25;0.90;;;;;;;;;;5008856;28;20092;-40
2021/10/29 12:09:48;;;;;;;0.95;0.90;;;;;;;;;;5000669;28;20046;-39
2021/10/29 12:12:18;;;;;;;0.85;0.85;;;;;;;;;;5011373;28;20064;-39
2021/10/29 12:14:46;;;;;;;1.70;0.90;;;;;;;;;;5009333;28;20049;-39
2021/10/29 12:20:02;;;;;;;1.90;1.00;;;;;;;;;;5009666;28;20046;-40
2021/10/29 12:22:35;;;;;;;0.70;0.70;;;;;;;;;;5000741;28;20137;-39
2021/10/29 12:28:31;;;;;;;0.98;0.80;;;;;;;;;;5005445;28;20391;-40
2021/10/29 12:30:55;;;;;;;1.05;0.95;;;;;;;;;;5071069;28;20060;-39
2021/10/29 13:03:11;;;;;;;3.10;1.20;;;;;;;;;;5063236;28;20040;-39
2021/10/29 13:05:38;;;;;;;1.40;1.30;;;;;;;;;;5068370;28;20429;-39
2021/10/29 13:08:18;;;;;;;1.85;1.00;;;;;;;;;;5070897;28;20036;-40
2021/10/29 13:10:45;;;;;;;1.17;1.17;;;;;;;;;;5072727;28;21029;-39
2021/10/29 13:13:18;;;;;;;0.98;0.98;;;;;;;;;;5071233;28;20032;-39
2021/10/29 13:15:46;;;;;;;2.95;1.00;;;;;;;;;;5069300;28;20520;-39
2021/10/29 13:18:19;;;;;;;3.60;1.45;;;;;;;;;;5069350;28;20041;-39
2021/10/29 13:35:19;;;;;;;3.08;2.97;;;;;;;;;;5071021;28;20047;-45
2021/10/29 13:38:16;;;;;;;2.38;2.28;;;;;;;;;;5070558;28;20094;-46
2021/10/29 13:51:59;;;;;;;4.75;3.25;;;;;;;;;;5070690;28;20098;-45
2021/10/29 13:54:41;;;;;;;6.50;5.85;;;;;;;;;;5070814;28;20407;-45
2021/10/29 14:29:39;;;;;;;2.65;1.63;;;;;;;;;;5069415;28;20094;-46
2021/10/29 14:34:43;;;;;;;1.60;1.50;;;;;;;;;;5069334;28;20534;-44
2021/10/29 14:42:40;;;;;;;1.80;1.50;;;;;;;;;;5059140;28;20045;-45
2021/10/29 15:06:40;;;;;;;7.47;6.90;;;;;;;;;;5069757;28;20029;-45
2021/10/29 15:30:36;;;;;;;14.85;9.75;;;;;;;;;;5068912;28;20124;-44
2021/10/29 15:49:24;;;;;;;6.15;5.85;;;;;;;;;;5072896;28;20043;-45
2021/10/29 15:52:02;;;;;;;5.15;4.95;;;;;;;;;;5072728;28;20086;-46
2021/10/29 15:54:31;;;;;;;5.50;5.22;;;;;;;;;;5072999;28;20063;-45
2021/10/29 15:57:01;;;;;;;6.35;6.10;;;;;;;;;;5072521;28;20047;-44
2021/10/29 16:18:49;;;;;;;7.10;6.63;;;;;;;;;;5064423;28;20048;-44
2021/10/29 16:21:17;;;;;;;7.43;6.85;;;;;;;;;;5087483;28;20105;-47
2021/10/29 16:23:44;;;;;;;6.50;6.15;;;;;;;;;;5087475;28;20044;-45
2021/10/29 16:26:16;;;;;;;8.82;8.27;;;;;;;;;;5085621;28;20051;-45
2021/10/29 16:28:43;;;;;;;10.10;9.10;;;;;;;;;;5079888;28;20052;-43
2021/10/29 16:31:15;;;;;;;9.55;9.02;;;;;;;;;;5082710;28;20056;-43
2021/10/29 16:33:42;;;;;;;8.50;8.20;;;;;;;;;;5083124;28;20044;-44
2021/10/29 16:36:09;;;;;;;8.35;6.97;;;;;;;;;;5085714;28;20097;-44
2021/10/29 16:38:35;;;;;;;7.85;7.15;;;;;;;;;;5087588;28;20072;-44
2021/10/29 16:41:02;;;;;;;7.15;6.85;;;;;;;;;;5074983;28;20056;-43
2021/10/29 16:43:31;;;;;;;7.25;6.38;;;;;;;;;;5069354;28;20146;-45
2021/10/29 16:45:58;;;;;;;8.07;7.53;;;;;;;;;;5067536;28;20090;-46
2021/10/29 16:48:25;;;;;;;7.35;6.95;;;;;;;;;;5071672;28;20412;-43
2021/10/29 16:50:52;;;;;;;7.25;6.90;;;;;;;;;;5062128;28;20037;-46
2021/10/29 16:53:19;;;;;;;8.57;7.45;;;;;;;;;;5067826;28;20036;-43
2021/10/29 16:55:46;;;;;;;8.82;7.35;;;;;;;;;;5068792;28;20032;-44
2021/10/29 16:58:14;;;;;;;8.93;8.35;;;;;;;;;;5069050;28;20040;-43
2021/10/29 17:00:41;;;;;;;10.98;9.80;;;;;;;;;;5072098;28;20400;-42
2021/10/29 17:03:09;;;;;;;9.30;6.55;;;;;;;;;;5069792;28;20048;-43
2021/10/29 17:05:35;;;;;;;7.13;6.75;;;;;;;;;;5070275;28;20040;-44
2021/10/29 17:08:04;;;;;;;7.22;6.93;;;;;;;;;;5068638;28;20551;-42
2021/10/29 17:10:31;;;;;;;7.75;7.13;;;;;;;;;;5071648;28;20511;-45
2021/10/29 17:12:58;;;;;;;7.72;7.22;;;;;;;;;;5065232;28;20098;-44
2021/10/29 17:15:25;;;;;;;8.07;7.38;;;;;;;;;;5068553;28;20127;-45
2021/10/29 17:17:52;;;;;;;7.22;6.75;;;;;;;;;;5068142;28;20037;-43
2021/10/29 17:20:19;;;;;;;7.78;7.18;;;;;;;;;;5068484;28;20149;-45
2021/10/29 17:22:46;;;;;;;6.90;6.60;;;;;;;;;;5071856;28;20044;-44
2021/10/29 17:25:14;;;;;;;6.70;6.40;;;;;;;;;;5066541;28;20040;-45
2021/10/29 17:27:41;;;;;;;7.15;6.78;;;;;;;;;;5065413;28;20082;-44
2021/10/29 17:30:08;;;;;;;11.48;9.43;;;;;;;;;;5069531;28;20039;-43
2021/10/29 17:32:35;;;;;;;9.20;8.65;;;;;;;;;;5068617;28;20071;-42
2021/10/29 17:35:02;;;;;;;11.82;10.75;;;;;;;;;;5069410;28;20063;-43
2021/10/29 17:37:31;;;;;;;47.90;32.33;;;;;;;;;;5064325;28;20041;-46
2021/10/29 17:39:58;;;;;;;20.48;18.27;;;;;;;;;;5068727;28;20416;-44
2021/10/29 17:42:27;;;;;;;13.88;12.77;;;;;;;;;;5066349;28;20115;-43
2021/10/29 17:44:54;;;;;;;13.00;11.52;;;;;;;;;;5064418;28;20170;-43
2021/10/29 17:47:23;;;;;;;9.23;8.38;;;;;;;;;;5065862;28;20094;-43
2021/10/29 17:49:51;;;;;;;15.10;13.70;;;;;;;;;;5069012;28;20038;-45
2021/10/29 17:52:18;;;;;;;19.48;16.55;;;;;;;;;;5070293;28;20067;-45
2021/10/29 17:54:52;;;;;;;19.00;17.75;;;;;;;;;;5067990;28;20036;-46
2021/10/29 17:57:20;;;;;;;26.60;24.13;;;;;;;;;;5065960;28;20431;-44
2021/10/29 17:59:47;;;;;;;30.90;27.90;;;;;;;;;;5061777;28;20064;-43
2021/10/29 18:02:21;;;;;;;28.80;25.95;;;;;;;;;;5066128;28;20048;-45
2021/10/29 18:04:48;;;;;;;42.75;27.98;;;;;;;;;;5070729;28;20154;-42
2021/10/29 18:07:16;;;;;;;43.65;34.20;;;;;;;;;;5068659;28;20044;-44
2021/10/29 18:09:42;;;;;;;35.08;27.05;;;;;;;;;;5065322;28;20374;-45
2021/10/29 18:12:10;;;;;;;48.88;38.67;;;;;;;;;;5067505;28;20128;-44
2021/10/29 18:14:41;;;;;;;108.00;79.15;;;;;;;;;;5069790;28;20037;-45
2021/10/29 18:17:08;;;;;;;52.10;46.20;;;;;;;;;;5071231;28;20102;-45
2021/10/29 18:19:36;;;;;;;40.10;36.22;;;;;;;;;;5064397;28;20045;-46
2021/10/29 18:22:06;;;;;;;35.58;32.42;;;;;;;;;;5064954;28;20543;-43
2021/10/29 18:24:33;;;;;;;33.40;30.48;;;;;;;;;;5067614;28;20037;-44
2021/10/29 18:27:00;;;;;;;27.80;25.58;;;;;;;;;;5066136;28;20419;-45
2021/10/29 18:29:27;;;;;;;30.75;27.92;;;;;;;;;;5067733;28;20036;-47
2021/10/29 18:31:54;;;;;;;33.45;30.92;;;;;;;;;;5068059;28;20048;-49
2021/10/29 18:34:22;;;;;;;45.67;38.75;;;;;;;;;;5066326;28;20041;-49
2021/10/29 18:36:49;;;;;;;45.47;36.25;;;;;;;;;;5068726;28;20063;-47
2021/10/29 18:39:16;;;;;;;49.17;38.10;;;;;;;;;;5067089;28;20094;-46
2021/10/29 18:41:42;;;;;;;40.13;35.88;;;;;;;;;;5068865;28;20067;-48
2021/10/29 18:44:09;;;;;;;40.42;36.47;;;;;;;;;;5064132;28;20126;-45
2021/10/29 18:46:37;;;;;;;38.67;35.17;;;;;;;;;;5070807;28;20047;-47
2021/10/29 18:49:04;;;;;;;34.22;31.38;;;;;;;;;;5068383;28;20101;-45
2021/10/29 18:51:32;;;;;;;37.05;33.90;;;;;;;;;;5060857;28;20541;-46
2021/10/29 18:53:58;;;;;;;42.67;38.45;;;;;;;;;;5070347;28;20063;-48
2021/10/29 18:56:27;;;;;;;40.65;35.63;;;;;;;;;;5069260;28;20040;-46
2021/10/29 18:58:54;;;;;;;46.17;41.85;;;;;;;;;;5068840;28;20036;-47
2021/10/29 19:01:21;;;;;;;41.72;37.42;;;;;;;;;;5069308;28;20565;-45
2021/10/29 19:03:48;;;;;;;39.05;35.40;;;;;;;;;;5062714;28;20102;-46
2021/10/29 19:06:15;;;;;;;42.33;38.38;;;;;;;;;;5066973;28;20049;-44
2021/10/29 19:08:43;;;;;;;40.33;36.53;;;;;;;;;;5060513;28;20047;-46
2021/10/29 19:11:10;;;;;;;27.13;25.00;;;;;;;;;;5067395;28;20048;-45
2021/10/29 19:13:43;;;;;;;20.67;19.53;;;;;;;;;;5063935;28;20408;-45
2021/10/29 19:16:10;;;;;;;20.17;19.05;;;;;;;;;;5059623;28;20336;-45
2021/10/29 19:18:36;;;;;;;20.80;19.70;;;;;;;;;;5063546;28;20126;-45
2021/10/29 19:21:04;;;;;;;23.85;22.35;;;;;;;;;;5067792;28;20037;-45
2021/10/29 19:23:31;;;;;;;33.08;29.95;;;;;;;;;;5063473;28;20610;-45
2021/10/29 19:25:58;;;;;;;26.75;25.02;;;;;;;;;;5065311;28;20037;-45
2021/10/29 19:28:26;;;;;;;24.25;22.98;;;;;;;;;;5065539;28;20037;-42
2021/10/29 19:30:55;;;;;;;27.33;25.33;;;;;;;;;;5064432;28;20032;-45
2021/10/29 19:33:22;;;;;;;27.83;25.73;;;;;;;;;;5039462;28;20037;-44